createdAt,value
2023-01-03T00:02:12.729Z,33.70
2023-01-03T00:04:43.292Z,30.77
2023-01-03T00:07:12.634Z,40.20
2023-01-03T00:09:39.574Z,34.35
2023-01-03T00:12:30.190Z,36.95
2023-01-03T00:14:58.793Z,38.47
2023-01-03T00:17:26.035Z,33.95
2023-01-03T00:19:52.773Z,33.47
2023-01-03T00:22:19.922Z,33.10
2023-01-03T00:24:48.821Z,39.08
2023-01-03T00:27:16.654Z,36.95
2023-01-03T00:29:43.618Z,41.60
2023-01-03T00:32:10.977Z,36.03
2023-01-03T00:34:37.827Z,35.63
2023-01-03T00:37:04.653Z,31.08
2023-01-03T00:39:31.434Z,31.10
2023-01-03T00:41:58.266Z,32.53
2023-01-03T00:44:25.065Z,30.35
2023-01-03T00:46:51.930Z,33.55
2023-01-03T00:49:18.713Z,31.42
2023-01-03T00:51:45.564Z,33.40
2023-01-03T00:54:14.243Z,32.70
2023-01-03T00:56:43.831Z,33.85
2023-01-03T00:59:12.144Z,31.48
2023-01-03T01:01:46.801Z,35.05
2023-01-03T01:04:21.845Z,33.42
2023-01-03T01:06:57.116Z,32.30
2023-01-03T01:09:26.943Z,30.70
2023-01-03T01:11:54.906Z,28.83
2023-01-03T01:14:24.001Z,30.27
2023-01-03T01:16:54.804Z,32.22
2023-01-03T01:19:25.139Z,31.63
2023-01-03T01:21:52.209Z,34.58
2023-01-03T01:24:19.350Z,30.95
2023-01-03T01:26:46.847Z,27.45
2023-01-03T01:29:15.030Z,30.40
2023-01-03T01:31:42.692Z,28.77
2023-01-03T01:34:10.162Z,32.65
2023-01-03T01:36:41.944Z,33.22
2023-01-03T01:39:35.413Z,33.70
2023-01-03T01:42:28.675Z,33.38
2023-01-03T01:45:01.221Z,28.27
2023-01-03T01:47:27.864Z,30.25
2023-01-03T01:50:05.685Z,32.15
2023-01-03T01:52:35.474Z,30.15
2023-01-03T01:55:04.660Z,33.15
2023-01-03T01:57:31.665Z,31.30
2023-01-03T02:00:00.399Z,34.78
2023-01-03T02:02:28.060Z,38.05
2023-01-03T02:04:56.851Z,46.42
2023-01-03T02:07:24.178Z,56.95
2023-01-03T02:09:56.405Z,60.97
2023-01-03T02:12:44.538Z,56.97
2023-01-03T02:15:23.449Z,50.83
2023-01-03T02:18:08.152Z,44.83
2023-01-03T02:21:02.633Z,31.85
2023-01-03T02:23:44.309Z,37.83
2023-01-03T02:26:22.759Z,65.03
2023-01-03T02:28:49.477Z,73.15
2023-01-03T02:31:44.194Z,62.53
2023-01-03T02:34:27.485Z,56.40
2023-01-03T02:37:07.938Z,54.60
2023-01-03T02:39:40.966Z,63.17
2023-01-03T02:42:32.623Z,56.35
2023-01-03T02:45:14.066Z,52.70
2023-01-03T02:47:50.819Z,71.95
2023-01-03T02:50:20.256Z,56.35
2023-01-03T02:52:49.457Z,70.68
2023-01-03T02:55:29.330Z,69.90
2023-01-03T02:58:04.945Z,64.45
2023-01-03T03:00:34.366Z,50.58
2023-01-03T03:03:09.758Z,80.18
2023-01-03T03:06:01.376Z,55.63
2023-01-03T03:08:28.859Z,60.10
2023-01-03T03:11:14.804Z,52.97
2023-01-03T03:13:48.892Z,54.80
2023-01-03T03:16:43.125Z,56.78
2023-01-03T03:19:54.501Z,75.97
2023-01-03T03:22:59.374Z,80.95
2023-01-03T03:25:27.835Z,75.20
2023-01-03T03:28:18.292Z,76.43
2023-01-03T03:30:47.667Z,72.95
2023-01-03T03:33:16.519Z,61.75
2023-01-03T03:38:33.548Z,59.88
2023-01-03T03:41:48.114Z,54.78
2023-01-03T03:44:36.528Z,63.63
2023-01-03T03:47:34.710Z,53.30
2023-01-03T03:50:20.032Z,48.90
2023-01-03T03:52:52.130Z,55.08
2023-01-03T03:55:31.295Z,55.67
2023-01-03T03:58:06.867Z,51.50
2023-01-03T04:00:38.468Z,57.17
2023-01-03T04:03:08.297Z,51.97
2023-01-03T04:05:39.545Z,57.47
2023-01-03T04:08:06.794Z,53.42
2023-01-03T04:10:37.623Z,54.38
2023-01-03T04:13:04.919Z,49.42
2023-01-03T04:15:31.721Z,44.72
2023-01-03T04:17:58.451Z,65.63
2023-01-03T04:20:25.404Z,47.75
2023-01-03T04:22:52.132Z,58.13
2023-01-03T04:25:19.040Z,45.40
2023-01-03T04:27:45.781Z,65.90
2023-01-03T04:30:13.322Z,48.88
2023-01-03T04:32:40.439Z,54.30
2023-01-03T04:35:07.728Z,47.20
2023-01-03T04:37:34.542Z,49.17
2023-01-03T04:40:01.268Z,56.08
2023-01-03T04:42:46.431Z,45.63
2023-01-03T04:45:13.159Z,57.40
2023-01-03T04:47:39.928Z,64.45
2023-01-03T04:50:06.892Z,67.93
2023-01-03T04:52:33.666Z,62.42
2023-01-03T04:55:00.475Z,48.80
2023-01-03T04:57:27.297Z,49.03
2023-01-03T04:59:54.062Z,50.88
2023-01-03T05:02:20.924Z,50.25
2023-01-03T05:04:47.860Z,54.92
2023-01-03T05:07:14.545Z,54.42
2023-01-03T05:09:41.300Z,54.15
2023-01-03T05:12:08.106Z,44.30
2023-01-03T05:14:35.849Z,46.80
2023-01-03T05:17:02.630Z,49.88
2023-01-03T05:19:29.471Z,58.55
2023-01-03T05:22:14.799Z,64.22
2023-01-03T05:25:00.053Z,71.35
2023-01-03T05:27:27.368Z,65.80
2023-01-03T05:29:55.362Z,64.55
2023-01-03T05:32:23.951Z,76.57
2023-01-03T05:34:50.768Z,78.00
2023-01-03T05:37:17.523Z,78.72
2023-01-03T05:39:44.204Z,82.03
2023-01-03T05:42:10.927Z,87.80
2023-01-03T05:44:37.627Z,90.72
2023-01-03T05:47:05.627Z,104.15
2023-01-03T05:49:33.480Z,103.40
2023-01-03T05:52:00.318Z,80.70
2023-01-03T05:54:27.215Z,73.88
2023-01-03T05:56:54.077Z,79.63
2023-01-03T05:59:21.260Z,58.42
2023-01-03T06:01:48.779Z,70.43
2023-01-03T06:04:15.771Z,68.97
2023-01-03T06:06:42.575Z,90.07
2023-01-03T06:09:09.383Z,72.10
2023-01-03T06:11:36.204Z,59.60
2023-01-03T06:14:03.433Z,63.22
2023-01-03T06:16:48.975Z,75.57
2023-01-03T06:19:15.846Z,81.78
2023-01-03T06:21:42.654Z,90.28
2023-01-03T06:24:10.001Z,61.03
2023-01-03T06:26:37.085Z,62.88
2023-01-03T06:29:05.086Z,67.50
2023-01-03T06:31:32.302Z,79.35
2023-01-03T06:33:59.194Z,121.03
2023-01-03T06:36:26.185Z,90.90
2023-01-03T06:38:53.824Z,81.53
2023-01-03T06:41:20.672Z,66.40
2023-01-03T06:43:47.370Z,86.43
2023-01-03T06:46:32.957Z,81.68
2023-01-03T06:49:18.382Z,79.28
2023-01-03T06:52:07.141Z,82.35
2023-01-03T06:54:36.158Z,96.50
2023-01-03T06:57:04.198Z,100.60
2023-01-03T06:59:30.973Z,108.45
2023-01-03T07:01:58.095Z,115.63
2023-01-03T07:04:27.353Z,90.60
2023-01-03T07:06:54.282Z,88.07
2023-01-03T07:09:21.407Z,114.55
2023-01-03T07:11:48.302Z,101.55
2023-01-03T07:14:15.234Z,99.60
2023-01-03T07:16:44.429Z,91.82
2023-01-03T07:19:13.985Z,86.75
2023-01-03T07:21:41.488Z,61.28
2023-01-03T07:24:11.055Z,96.95
2023-01-03T07:26:38.474Z,70.90
2023-01-03T07:29:08.114Z,68.50
2023-01-03T07:31:38.535Z,60.50
2023-01-03T07:34:05.512Z,65.03
2023-01-03T07:36:32.282Z,58.33
2023-01-03T07:38:59.011Z,54.78
2023-01-03T07:41:45.735Z,65.25
2023-01-03T07:44:12.521Z,52.35
2023-01-03T07:46:39.364Z,80.05
2023-01-03T07:49:11.409Z,59.00
2023-01-03T07:51:39.412Z,55.83
2023-01-03T07:54:07.528Z,185.70
2023-01-03T07:56:34.853Z,71.03
2023-01-03T07:59:02.109Z,87.50
2023-01-03T08:01:30.522Z,81.80
2023-01-03T08:03:57.715Z,62.15
2023-01-03T08:06:25.514Z,76.35
2023-01-03T08:09:12.150Z,63.58
2023-01-03T08:11:57.942Z,69.88
2023-01-03T08:14:26.529Z,99.32
2023-01-03T08:16:54.225Z,74.57
2023-01-03T08:19:20.912Z,61.80
2023-01-03T08:21:47.595Z,59.63
2023-01-03T08:24:14.433Z,54.05
2023-01-03T08:26:41.514Z,60.53
2023-01-03T08:29:08.261Z,62.05
2023-01-03T08:31:40.644Z,70.13
2023-01-03T08:34:16.957Z,90.15
2023-01-03T08:36:55.295Z,101.95
2023-01-03T08:39:26.658Z,84.53
2023-01-03T08:42:05.633Z,65.97
2023-01-03T08:44:32.952Z,73.45
2023-01-03T08:47:02.438Z,91.15
2023-01-03T08:49:30.283Z,72.70
2023-01-03T08:51:57.088Z,67.88
2023-01-03T08:54:23.842Z,74.53
2023-01-03T08:56:50.779Z,85.10
2023-01-03T08:59:17.596Z,83.53
2023-01-03T09:01:44.482Z,73.97
2023-01-03T09:04:11.387Z,73.97
2023-01-03T09:06:38.253Z,63.40
2023-01-03T09:09:07.906Z,70.30
2023-01-03T09:11:34.859Z,74.03
2023-01-03T09:14:01.717Z,64.68
2023-01-03T09:16:28.640Z,54.25
2023-01-03T09:18:55.464Z,62.08
2023-01-03T09:21:22.321Z,65.70
2023-01-03T09:23:49.080Z,72.45
2023-01-03T09:26:15.879Z,60.33
2023-01-03T09:28:42.669Z,57.50
2023-01-03T09:31:09.511Z,60.78
2023-01-03T09:33:36.328Z,63.35
2023-01-03T09:36:03.173Z,61.92
2023-01-03T09:38:29.931Z,59.00
2023-01-03T09:41:06.417Z,56.70
2023-01-03T09:43:41.215Z,57.47
2023-01-03T09:46:24.991Z,77.25
2023-01-03T09:48:53.639Z,53.67
2023-01-03T09:51:44.450Z,57.90
2023-01-03T09:54:37.479Z,51.45
2023-01-03T09:57:33.333Z,62.20
2023-01-03T10:00:19.212Z,57.13
2023-01-03T10:03:51.077Z,57.38
2023-01-03T10:06:30.266Z,56.80
2023-01-03T10:09:20.028Z,61.17
2023-01-03T10:12:07.575Z,55.50
2023-01-03T10:14:54.992Z,60.05
2023-01-03T10:17:26.434Z,59.92
2023-01-03T10:20:38.265Z,57.72
2023-01-03T10:23:07.903Z,54.42
2023-01-03T10:25:39.801Z,57.90
2023-01-03T10:28:19.058Z,52.25
2023-01-03T10:31:00.769Z,60.80
2023-01-03T10:33:40.791Z,55.42
2023-01-03T10:36:09.177Z,62.92
2023-01-03T10:41:39.485Z,57.78
2023-01-03T10:44:06.343Z,57.28
2023-01-03T10:46:33.210Z,53.50
2023-01-03T10:49:33.484Z,50.08
2023-01-03T10:52:01.126Z,60.17
2023-01-03T10:54:43.168Z,57.58
2023-01-03T10:57:43.689Z,59.97
2023-01-03T11:00:33.839Z,57.38
2023-01-03T11:03:10.297Z,54.65
2023-01-03T11:05:38.461Z,51.25
2023-01-03T11:08:13.923Z,48.28
2023-01-03T11:10:58.864Z,47.67
2023-01-03T11:13:33.485Z,54.90
2023-01-03T11:16:03.431Z,50.10
2023-01-03T11:18:31.437Z,56.55
2023-01-03T11:21:13.100Z,45.83
2023-01-03T11:23:45.590Z,45.72
2023-01-03T11:26:59.996Z,48.40
2023-01-03T11:29:45.252Z,46.83
2023-01-03T11:32:33.756Z,37.70
2023-01-03T11:35:29.597Z,48.92
2023-01-03T11:38:27.286Z,45.83
2023-01-03T11:40:59.686Z,47.95
2023-01-03T11:43:44.589Z,45.72
2023-01-03T11:46:30.021Z,38.13
2023-01-03T11:49:08.998Z,41.53
2023-01-03T11:51:48.477Z,38.53
2023-01-03T11:54:29.618Z,43.45
2023-01-03T11:57:03.243Z,37.00
2023-01-03T11:59:46.992Z,35.47
2023-01-03T12:02:51.935Z,43.35
2023-01-03T12:05:33.798Z,40.15
2023-01-03T12:08:12.666Z,36.17
2023-01-03T12:10:39.366Z,37.05
2023-01-03T12:13:29.883Z,37.38
2023-01-03T12:16:25.302Z,37.33
2023-01-03T12:19:12.057Z,35.28
2023-01-03T12:21:43.674Z,40.40
2023-01-03T12:24:32.193Z,35.85
2023-01-03T12:27:14.711Z,36.33
2023-01-03T12:30:09.473Z,45.83
2023-01-03T12:32:52.120Z,39.08
2023-01-03T12:35:41.900Z,38.70
2023-01-03T12:38:11.488Z,39.40
2023-01-03T12:40:51.786Z,38.35
2023-01-03T12:43:18.467Z,30.83
2023-01-03T12:46:00.530Z,29.33
2023-01-03T12:49:05.519Z,31.80
2023-01-03T12:51:32.728Z,28.70
2023-01-03T12:54:11.681Z,24.75
2023-01-03T12:57:19.907Z,24.92
2023-01-03T13:00:01.771Z,26.80
2023-01-03T13:02:48.879Z,27.27
2023-01-03T13:05:18.993Z,21.85
2023-01-03T13:07:54.288Z,16.20
2023-01-03T13:10:27.307Z,17.83
2023-01-03T13:12:54.587Z,20.67
2023-01-03T13:15:42.612Z,18.92
2023-01-03T13:18:18.516Z,22.15
2023-01-03T13:20:50.025Z,22.77
2023-01-03T13:23:42.049Z,27.80
2023-01-03T13:26:21.201Z,22.08
2023-01-03T13:28:48.375Z,24.00
2023-01-03T13:31:15.674Z,28.75
2023-01-03T13:33:56.273Z,22.75
2023-01-03T13:36:24.703Z,22.23
2023-01-03T13:38:51.753Z,23.88
2023-01-03T13:41:39.461Z,23.88
2023-01-03T13:44:23.195Z,22.85
2023-01-03T13:46:52.170Z,22.42
2023-01-03T13:49:28.217Z,23.08
2023-01-03T13:51:56.967Z,24.13
2023-01-03T13:54:35.370Z,22.27
2023-01-03T13:57:05.409Z,20.85
2023-01-03T13:59:42.188Z,22.83
2023-01-03T14:03:19.793Z,23.48
2023-01-03T14:06:08.447Z,25.08
2023-01-03T14:08:51.392Z,33.97
2023-01-03T14:11:52.494Z,20.80
2023-01-03T14:14:24.290Z,21.98
2023-01-03T14:16:57.815Z,25.88
2023-01-03T14:19:29.084Z,23.70
2023-01-03T14:22:28.202Z,27.15
2023-01-03T14:24:57.747Z,23.52
2023-01-03T14:27:32.680Z,23.17
2023-01-03T14:30:00.647Z,23.08
2023-01-03T14:32:34.301Z,26.90
2023-01-03T14:35:02.710Z,33.50
2023-01-03T14:37:30.338Z,31.15
2023-01-03T14:40:01.162Z,32.65
2023-01-03T14:42:28.642Z,25.48
2023-01-03T14:45:04.189Z,33.10
2023-01-03T14:47:41.967Z,38.22
2023-01-03T14:50:30.540Z,35.25
2023-01-03T14:53:02.882Z,34.70
2023-01-03T14:55:32.895Z,34.13
2023-01-03T14:58:04.957Z,37.20
2023-01-03T15:00:36.188Z,53.08
2023-01-03T15:03:04.137Z,48.20
2023-01-03T15:05:39.474Z,46.05
2023-01-03T15:08:09.073Z,54.08
2023-01-03T15:10:48.471Z,31.52
2023-01-03T15:13:30.372Z,36.75
2023-01-03T15:16:00.486Z,37.03
2023-01-03T15:18:31.455Z,40.33
2023-01-03T15:21:00.513Z,37.78
2023-01-03T15:23:44.408Z,38.85
2023-01-03T15:26:27.089Z,41.53
2023-01-03T15:29:15.938Z,42.75
2023-01-03T15:31:58.383Z,42.00
2023-01-03T15:34:34.328Z,38.67
2023-01-03T15:37:05.050Z,101.93
2023-01-03T15:39:45.191Z,120.03
2023-01-03T15:45:19.731Z,78.53
2023-01-03T15:47:49.026Z,53.00
2023-01-03T15:50:21.264Z,49.85
2023-01-03T15:52:49.267Z,56.70
2023-01-03T15:55:17.014Z,56.38
2023-01-03T15:57:51.410Z,77.38
2023-01-03T16:00:22.419Z,57.47
2023-01-03T16:02:49.927Z,64.55
2023-01-03T16:05:22.200Z,50.47
2023-01-03T16:07:50.565Z,40.70
2023-01-03T16:10:17.493Z,37.80
2023-01-03T16:12:44.509Z,37.35
2023-01-03T16:15:20.508Z,66.57
2023-01-03T16:17:48.127Z,57.72
2023-01-03T16:20:17.850Z,51.42
2023-01-03T16:23:02.304Z,44.67
2023-01-03T16:25:29.335Z,37.35
2023-01-03T16:27:56.345Z,41.05
2023-01-03T16:30:24.437Z,41.72
2023-01-03T16:32:51.807Z,49.90
2023-01-03T16:35:19.486Z,63.80
2023-01-03T16:37:47.272Z,69.43
2023-01-03T16:40:19.730Z,40.65
2023-01-03T16:42:47.330Z,37.00
2023-01-03T16:45:15.193Z,40.60
2023-01-03T16:47:43.273Z,44.67
2023-01-03T16:50:18.520Z,61.35
2023-01-03T16:52:48.247Z,35.78
2023-01-03T16:55:16.760Z,70.15
2023-01-03T17:00:21.125Z,47.88
2023-01-03T17:02:48.101Z,57.10
2023-01-03T17:05:15.241Z,85.82
2023-01-03T17:07:44.280Z,42.75
2023-01-03T17:10:36.032Z,39.55
2023-01-03T17:13:10.456Z,45.40
2023-01-03T17:15:41.002Z,65.78
2023-01-03T17:18:18.690Z,47.40
2023-01-03T17:20:45.559Z,59.42
2023-01-03T17:23:12.456Z,48.60
2023-01-03T17:25:40.347Z,58.67
2023-01-03T17:28:10.370Z,53.05
2023-01-03T17:30:37.891Z,53.83
2023-01-03T17:33:04.701Z,48.58
2023-01-03T17:35:31.762Z,50.42
2023-01-03T17:38:24.716Z,60.83
2023-01-03T17:40:47.910Z,53.80
2023-01-03T17:43:24.202Z,44.50
2023-01-03T17:46:14.901Z,45.00
2023-01-03T17:49:03.414Z,50.28
2023-01-03T17:51:30.177Z,46.83
2023-01-03T17:53:57.820Z,45.30
2023-01-03T17:56:24.825Z,56.28
2023-01-03T17:58:56.268Z,56.25
2023-01-03T18:01:24.030Z,54.13
2023-01-03T18:03:51.146Z,47.22
2023-01-03T18:06:21.181Z,81.50
2023-01-03T18:08:48.965Z,45.28
2023-01-03T18:11:22.284Z,41.55
2023-01-03T18:13:49.909Z,41.35
2023-01-03T18:16:22.222Z,46.83
2023-01-03T18:18:49.584Z,41.78
2023-01-03T18:21:24.911Z,54.47
2023-01-03T18:24:02.029Z,48.80
2023-01-03T18:26:41.093Z,50.58
2023-01-03T18:29:13.599Z,39.80
2023-01-03T18:31:40.527Z,40.40
2023-01-03T18:34:07.686Z,50.90
2023-01-03T18:36:47.792Z,46.38
2023-01-03T18:39:17.629Z,47.22
2023-01-03T18:41:45.958Z,42.10
2023-01-03T18:44:20.622Z,55.20
2023-01-03T18:49:14.847Z,47.10
2023-01-03T18:51:41.836Z,48.67
2023-01-03T18:54:10.812Z,63.38
2023-01-03T18:56:39.793Z,52.95
2023-01-03T18:59:13.668Z,51.33
2023-01-03T19:01:40.488Z,50.00
2023-01-03T19:04:07.351Z,52.45
2023-01-03T19:06:34.993Z,54.17
2023-01-03T19:09:05.134Z,51.22
2023-01-03T19:11:37.990Z,57.25
2023-01-03T19:14:04.749Z,52.20
2023-01-03T19:16:33.917Z,40.85
2023-01-03T19:19:01.446Z,59.53
2023-01-03T19:21:45.944Z,42.03
2023-01-03T19:24:39.235Z,73.15
2023-01-03T19:27:17.823Z,92.80
2023-01-03T19:29:44.934Z,58.05
2023-01-03T19:32:18.123Z,56.03
2023-01-03T19:34:45.024Z,54.00
2023-01-03T19:37:12.486Z,54.30
2023-01-03T19:39:39.274Z,48.50
2023-01-03T19:42:30.716Z,42.22
2023-01-03T19:45:02.761Z,47.92
2023-01-03T19:47:29.566Z,37.85
2023-01-03T19:49:58.104Z,39.78
2023-01-03T19:54:51.709Z,143.95
2023-01-03T19:57:24.171Z,48.97
2023-01-03T19:59:58.346Z,49.67
2023-01-03T20:02:28.126Z,39.13
2023-01-03T20:04:55.033Z,43.28
2023-01-03T20:07:21.820Z,42.97
2023-01-03T20:09:48.653Z,36.88
2023-01-03T20:12:21.769Z,36.85
2023-01-03T20:14:52.157Z,38.45
2023-01-03T20:17:21.541Z,34.67
2023-01-03T20:19:48.681Z,43.30
2023-01-03T20:22:37.627Z,61.97
2023-01-03T20:25:03.524Z,40.63
2023-01-03T20:27:30.319Z,46.80
2023-01-03T20:29:57.067Z,34.85
2023-01-03T20:32:24.851Z,33.92
2023-01-03T20:34:51.605Z,77.85
2023-01-03T20:37:20.386Z,164.05
2023-01-03T20:39:47.385Z,89.35
2023-01-03T20:42:24.978Z,87.05
2023-01-03T20:44:51.844Z,117.18
2023-01-03T20:47:23.171Z,90.95
2023-01-03T20:49:50.963Z,87.72
2023-01-03T20:52:19.182Z,65.57
2023-01-03T20:54:46.176Z,48.15
2023-01-03T20:57:17.660Z,46.08
2023-01-03T20:59:44.460Z,42.47
2023-01-03T21:02:11.361Z,45.30
2023-01-03T21:04:39.541Z,43.55
2023-01-03T21:07:11.671Z,47.50
2023-01-03T21:09:38.753Z,42.83
2023-01-03T21:12:05.631Z,51.28
2023-01-03T21:14:32.375Z,39.63
2023-01-03T21:16:59.140Z,44.92
2023-01-03T21:19:26.091Z,43.65
2023-01-03T21:21:55.623Z,44.35
2023-01-03T21:24:24.082Z,42.85
2023-01-03T21:26:51.002Z,41.80
2023-01-03T21:29:17.786Z,43.17
2023-01-03T21:31:44.562Z,40.58
2023-01-03T21:34:20.203Z,40.50
2023-01-03T21:36:47.144Z,45.78
2023-01-03T21:39:14.252Z,40.13
2023-01-03T21:41:59.434Z,41.80
2023-01-03T21:44:26.415Z,44.13
2023-01-03T21:46:53.179Z,45.38
2023-01-03T21:49:20.590Z,43.05
2023-01-03T21:51:47.315Z,44.03
2023-01-03T21:54:14.024Z,51.42
2023-01-03T21:56:45.789Z,46.10
2023-01-03T21:59:14.789Z,50.50
2023-01-03T22:02:02.540Z,45.00
2023-01-03T22:04:29.739Z,46.47
2023-01-03T22:07:00.651Z,46.95
2023-01-03T22:09:47.759Z,46.55
2023-01-03T22:12:16.206Z,49.65
2023-01-03T22:17:10.542Z,53.42
2023-01-03T22:19:37.299Z,53.25
2023-01-03T22:22:04.892Z,54.47
2023-01-03T22:24:31.837Z,52.97
2023-01-03T22:26:58.676Z,49.47
2023-01-03T22:29:25.446Z,54.28
2023-01-03T22:31:52.321Z,52.83
2023-01-03T22:34:19.134Z,54.22
2023-01-03T22:36:45.909Z,48.25
2023-01-03T22:39:12.619Z,43.65
2023-01-03T22:41:39.362Z,51.33
2023-01-03T22:44:06.162Z,51.83
2023-01-03T22:46:32.979Z,42.10
2023-01-03T22:48:59.819Z,39.83
2023-01-03T22:51:26.632Z,37.35
2023-01-03T22:53:53.406Z,44.85
2023-01-03T22:56:20.149Z,41.03
2023-01-03T22:58:46.968Z,37.83
2023-01-03T23:01:18.718Z,37.05
2023-01-03T23:03:47.190Z,42.13
2023-01-03T23:06:17.497Z,45.08
2023-01-03T23:08:45.496Z,44.97
2023-01-03T23:11:34.547Z,43.88
2023-01-03T23:14:05.857Z,47.63
2023-01-03T23:16:32.866Z,43.58
2023-01-03T23:19:02.491Z,38.45
2023-01-03T23:21:30.191Z,40.67
2023-01-03T23:23:56.932Z,34.53
2023-01-03T23:26:24.223Z,35.90
2023-01-03T23:28:58.312Z,34.13
2023-01-03T23:31:28.929Z,32.45
2023-01-03T23:33:56.718Z,35.15
2023-01-03T23:36:23.809Z,34.53
2023-01-03T23:38:50.992Z,33.25
2023-01-03T23:41:18.298Z,29.00
2023-01-03T23:43:45.328Z,36.28
2023-01-03T23:46:16.269Z,35.83
2023-01-03T23:48:43.154Z,30.83
2023-01-03T23:51:10.502Z,32.65
2023-01-03T23:53:39.343Z,33.35
2023-01-03T23:56:09.261Z,31.10
2023-01-03T23:58:36.074Z,35.63
